createdAt,value
2022-08-20T00:02:13.484Z,77.83
2022-08-20T00:04:41.665Z,77.49
2022-08-20T00:07:09.783Z,77.24
2022-08-20T00:09:40.632Z,77.14
2022-08-20T00:12:10.626Z,77.62
2022-08-20T00:14:39.626Z,77.61
2022-08-20T00:17:07.936Z,77.69
2022-08-20T00:19:36.264Z,77.33
2022-08-20T00:22:04.848Z,77.37
2022-08-20T00:24:33.953Z,77.00
2022-08-20T00:27:02.203Z,77.13
2022-08-20T00:29:31.304Z,76.81
2022-08-20T00:31:59.804Z,76.74
2022-08-20T00:34:28.556Z,76.70
2022-08-20T00:36:56.882Z,76.60
2022-08-20T00:39:25.046Z,76.66
2022-08-20T00:41:53.198Z,76.27
2022-08-20T00:44:22.929Z,76.28
2022-08-20T00:46:52.625Z,75.88
2022-08-20T00:49:24.142Z,75.99
2022-08-20T00:51:57.129Z,75.81
2022-08-20T00:54:29.409Z,75.92
2022-08-20T00:57:02.834Z,75.94
2022-08-20T00:59:33.450Z,76.27
2022-08-20T01:02:03.822Z,76.24
2022-08-20T01:04:34.305Z,76.03
2022-08-20T01:07:05.473Z,76.14
2022-08-20T01:09:58.631Z,76.07
2022-08-20T01:12:24.523Z,76.11
2022-08-20T01:14:54.657Z,75.98
2022-08-20T01:17:27.369Z,76.02
2022-08-20T01:20:02.930Z,75.87
2022-08-20T01:22:56.539Z,76.13
2022-08-20T01:25:30.324Z,76.26
2022-08-20T01:27:59.305Z,76.37
2022-08-20T01:30:31.395Z,76.26
2022-08-20T01:32:59.707Z,76.13
2022-08-20T01:35:29.012Z,75.74
2022-08-20T01:37:57.322Z,76.04
2022-08-20T01:40:49.187Z,76.68
2022-08-20T01:43:17.547Z,76.93
2022-08-20T01:45:46.396Z,76.85
2022-08-20T01:48:18.897Z,77.03
2022-08-20T01:50:58.198Z,77.04
2022-08-20T01:53:32.842Z,76.93
2022-08-20T01:56:01.234Z,77.28
2022-08-20T01:58:29.858Z,77.22
2022-08-20T02:00:58.453Z,77.01
2022-08-20T02:03:32.516Z,76.86
2022-08-20T02:06:03.511Z,77.26
2022-08-20T02:08:32.881Z,77.25
2022-08-20T02:11:00.996Z,77.08
2022-08-20T02:13:29.071Z,77.29
2022-08-20T02:15:57.240Z,77.23
2022-08-20T02:18:25.636Z,76.93
2022-08-20T02:20:53.819Z,76.94
2022-08-20T02:23:22.280Z,76.95
2022-08-20T02:25:50.759Z,77.22
2022-08-20T02:28:20.570Z,77.38
2022-08-20T02:30:51.660Z,77.25
2022-08-20T02:33:19.889Z,77.32
2022-08-20T02:35:55.755Z,77.59
2022-08-20T02:38:24.332Z,77.47
2022-08-20T02:40:52.549Z,77.50
2022-08-20T02:43:20.916Z,77.52
2022-08-20T02:45:49.144Z,77.27
2022-08-20T02:48:20.895Z,76.81
2022-08-20T02:50:52.334Z,77.31
2022-08-20T02:53:21.737Z,77.43
2022-08-20T02:55:50.092Z,77.50
2022-08-20T02:58:18.718Z,77.49
2022-08-20T03:00:47.021Z,77.75
2022-08-20T03:03:19.608Z,77.67
2022-08-20T03:05:49.193Z,77.51
2022-08-20T03:08:17.901Z,77.25
2022-08-20T03:10:47.165Z,76.89
2022-08-20T03:13:16.531Z,77.10
2022-08-20T03:15:47.446Z,77.41
2022-08-20T03:18:16.304Z,77.35
2022-08-20T03:20:45.985Z,77.44
2022-08-20T03:23:15.743Z,77.51
2022-08-20T03:25:43.996Z,77.61
2022-08-20T03:28:13.321Z,77.62
2022-08-20T03:30:42.375Z,77.70
2022-08-20T03:33:10.779Z,77.56
2022-08-20T03:35:39.426Z,77.41
2022-08-20T03:38:09.372Z,77.29
2022-08-20T03:40:38.398Z,77.21
2022-08-20T03:43:08.325Z,77.33
2022-08-20T03:45:38.730Z,77.45
2022-08-20T03:48:09.641Z,77.45
2022-08-20T03:50:41.869Z,77.39
2022-08-20T03:53:13.175Z,77.15
2022-08-20T03:55:45.717Z,77.45
2022-08-20T03:58:30.075Z,77.40
2022-08-20T04:01:05.239Z,77.02
2022-08-20T04:03:33.532Z,77.24
2022-08-20T04:06:01.693Z,77.57
2022-08-20T04:08:30.659Z,77.58
2022-08-20T04:10:59.904Z,77.86
2022-08-20T04:13:29.911Z,77.89
2022-08-20T04:16:00.561Z,77.90
2022-08-20T04:18:29.006Z,77.67
2022-08-20T04:20:57.092Z,77.39
2022-08-20T04:23:25.314Z,77.13
2022-08-20T04:25:53.953Z,77.42
2022-08-20T04:28:26.555Z,77.48
2022-08-20T04:30:55.960Z,77.90
2022-08-20T04:33:34.059Z,78.15
2022-08-20T04:36:05.337Z,78.16
2022-08-20T04:38:50.610Z,78.37
2022-08-20T04:41:22.572Z,78.53
2022-08-20T04:43:53.266Z,78.41
2022-08-20T04:46:24.904Z,78.03
2022-08-20T04:48:54.759Z,78.27
2022-08-20T04:51:24.611Z,78.27
2022-08-20T04:53:54.466Z,78.28
2022-08-20T04:56:25.284Z,78.43
2022-08-20T04:58:56.276Z,78.45
2022-08-20T05:01:25.422Z,78.58
2022-08-20T05:03:55.336Z,78.11
2022-08-20T05:06:27.838Z,77.37
2022-08-20T05:08:58.084Z,76.39
2022-08-20T05:11:34.425Z,75.63
2022-08-20T05:14:07.918Z,74.65
2022-08-20T05:16:37.481Z,74.29
2022-08-20T05:19:06.305Z,74.07
2022-08-20T05:21:34.413Z,74.02
2022-08-20T05:24:02.781Z,73.83
2022-08-20T05:26:32.488Z,73.48
2022-08-20T05:29:02.004Z,73.52
2022-08-20T05:31:33.357Z,73.68
2022-08-20T05:34:03.321Z,73.90
2022-08-20T05:36:31.502Z,73.55
2022-08-20T05:38:59.788Z,72.67
2022-08-20T05:41:30.046Z,70.72
2022-08-20T05:44:00.504Z,69.49
2022-08-20T05:46:30.634Z,68.22
2022-08-20T05:49:00.613Z,67.42
2022-08-20T05:51:29.573Z,66.59
2022-08-20T05:53:59.504Z,65.12
2022-08-20T05:56:29.850Z,64.63
2022-08-20T05:59:00.074Z,63.85
2022-08-20T06:01:28.636Z,63.67
2022-08-20T06:04:17.676Z,63.69
2022-08-20T06:06:47.313Z,63.76
2022-08-20T06:09:27.929Z,64.02
2022-08-20T06:12:02.572Z,64.45
2022-08-20T06:14:31.305Z,63.94
2022-08-20T06:17:08.286Z,63.96
2022-08-20T06:19:39.540Z,64.12
2022-08-20T06:22:19.423Z,64.88
2022-08-20T06:24:50.793Z,65.43
2022-08-20T06:27:19.664Z,65.56
2022-08-20T06:29:48.738Z,65.93
2022-08-20T06:32:17.466Z,66.08
2022-08-20T06:34:49.797Z,66.19
2022-08-20T06:37:21.335Z,66.55
2022-08-20T06:39:50.169Z,66.96
2022-08-20T06:42:21.017Z,67.21
2022-08-20T06:44:50.322Z,67.38
2022-08-20T06:47:20.201Z,67.56
2022-08-20T06:49:48.973Z,67.79
2022-08-20T06:52:17.492Z,68.41
2022-08-20T06:54:45.814Z,69.04
2022-08-20T06:57:16.849Z,69.48
2022-08-20T06:59:44.917Z,69.85
2022-08-20T07:02:17.173Z,70.07
2022-08-20T07:04:45.335Z,70.14
2022-08-20T07:07:18.521Z,69.97
2022-08-20T07:09:46.598Z,69.92
2022-08-20T07:12:14.797Z,70.28
2022-08-20T07:14:44.985Z,70.85
2022-08-20T07:17:13.155Z,71.29
2022-08-20T07:19:41.363Z,71.64
2022-08-20T07:22:09.633Z,72.35
2022-08-20T07:24:40.901Z,72.90
2022-08-20T07:27:09.368Z,73.09
2022-08-20T07:29:56.314Z,72.93
2022-08-20T07:32:36.816Z,72.81
2022-08-20T07:35:09.448Z,73.10
2022-08-20T07:37:42.764Z,73.57
2022-08-20T07:40:21.312Z,73.88
2022-08-20T07:42:53.252Z,74.24
2022-08-20T07:45:22.339Z,74.30
2022-08-20T07:47:52.937Z,74.20
2022-08-20T07:50:23.395Z,73.59
2022-08-20T07:52:52.903Z,72.88
2022-08-20T07:55:21.843Z,72.68
2022-08-20T07:57:50.632Z,72.67
2022-08-20T08:00:21.281Z,72.12
2022-08-20T08:02:49.584Z,71.59
2022-08-20T08:05:18.605Z,70.72
2022-08-20T08:07:47.085Z,70.83
2022-08-20T08:10:21.447Z,71.04
2022-08-20T08:12:51.704Z,70.32
2022-08-20T08:15:26.773Z,70.20
2022-08-20T08:17:58.747Z,69.82
2022-08-20T08:20:27.356Z,69.77
2022-08-20T08:22:56.988Z,69.89
2022-08-20T08:25:25.413Z,69.91
2022-08-20T08:27:53.533Z,69.54
2022-08-20T08:30:22.235Z,69.07
2022-08-20T08:33:11.241Z,68.47
2022-08-20T08:52:00.227Z,68.89
2022-08-20T08:54:34.345Z,68.86
2022-08-20T08:57:13.689Z,68.00
2022-08-20T09:00:03.218Z,67.52
2022-08-20T09:02:38.760Z,66.92
2022-08-20T09:05:17.755Z,67.13
2022-08-20T09:07:53.331Z,66.52
2022-08-20T09:10:26.290Z,66.47
2022-08-20T09:12:58.275Z,66.68
2022-08-20T09:15:29.936Z,66.40
2022-08-20T09:18:01.572Z,66.03
2022-08-20T09:20:33.908Z,65.58
2022-08-20T09:23:07.915Z,66.03
2022-08-20T09:25:39.890Z,66.13
2022-08-20T09:28:11.803Z,66.28
2022-08-20T09:30:52.331Z,66.59
2022-08-20T09:33:23.872Z,66.79
2022-08-20T09:35:55.604Z,66.61
2022-08-20T09:38:27.353Z,65.74
2022-08-20T09:40:59.551Z,65.74
2022-08-20T09:43:31.183Z,66.00
2022-08-20T09:46:02.817Z,66.36
2022-08-20T09:48:34.340Z,66.54
2022-08-20T09:51:06.291Z,66.55
2022-08-20T09:53:38.189Z,66.24
2022-08-20T09:56:11.275Z,66.16
2022-08-20T09:58:50.340Z,66.08
2022-08-20T10:01:23.596Z,66.02
2022-08-20T10:03:55.234Z,66.05
2022-08-20T10:06:26.705Z,65.45
2022-08-20T10:08:58.440Z,65.22
2022-08-20T10:11:32.137Z,65.09
2022-08-20T10:14:03.728Z,64.88
2022-08-20T10:16:36.179Z,65.36
2022-08-20T10:19:10.019Z,65.84
2022-08-20T10:21:43.194Z,66.08
2022-08-20T10:24:14.923Z,66.64
2022-08-20T10:26:46.977Z,67.03
2022-08-20T10:29:18.756Z,67.14
2022-08-20T10:31:50.255Z,67.39
2022-08-20T10:34:22.130Z,67.51
2022-08-20T10:36:54.112Z,67.78
2022-08-20T10:39:25.789Z,67.53
2022-08-20T10:41:57.321Z,67.47
2022-08-20T10:44:29.007Z,67.23
2022-08-20T10:47:13.602Z,67.31
2022-08-20T10:49:45.869Z,67.87
2022-08-20T10:52:17.910Z,68.42
2022-08-20T10:54:50.082Z,68.96
2022-08-20T10:57:27.837Z,69.32
2022-08-20T11:00:00.994Z,69.22
2022-08-20T11:02:32.724Z,69.30
2022-08-20T11:05:05.508Z,69.07
2022-08-20T11:07:55.375Z,68.98
2022-08-20T11:10:30.397Z,69.36
2022-08-20T11:13:02.524Z,69.82
2022-08-20T11:15:36.510Z,69.99
2022-08-20T11:18:09.077Z,69.92
2022-08-20T11:20:40.695Z,69.99
2022-08-20T11:23:12.305Z,69.45
2022-08-20T11:25:44.054Z,69.72
2022-08-20T11:28:16.232Z,70.05
2022-08-20T11:31:04.486Z,70.03
2022-08-20T11:33:35.990Z,70.41
2022-08-20T11:36:11.229Z,70.48
2022-08-20T11:38:43.100Z,70.64
2022-08-20T11:41:14.842Z,70.42
2022-08-20T11:44:04.686Z,69.79
2022-08-20T11:46:38.008Z,70.03
2022-08-20T11:49:09.563Z,70.22
2022-08-20T11:51:50.048Z,70.57
2022-08-20T11:54:21.995Z,69.99
2022-08-20T11:56:53.640Z,69.35
2022-08-20T11:59:25.376Z,68.70
2022-08-20T12:02:02.716Z,69.15
2022-08-20T12:04:35.437Z,69.28
2022-08-20T12:07:15.290Z,69.65
2022-08-20T12:09:51.394Z,69.50
2022-08-20T12:12:24.903Z,69.53
2022-08-20T12:14:56.876Z,69.49
2022-08-20T12:17:32.680Z,69.28
2022-08-20T12:20:07.233Z,69.68
2022-08-20T12:22:41.236Z,69.96
2022-08-20T12:25:14.212Z,69.73
2022-08-20T12:27:51.497Z,70.14
2022-08-20T12:30:26.827Z,70.56
2022-08-20T12:32:58.979Z,70.38
2022-08-20T12:35:32.067Z,69.98
2022-08-20T12:38:06.751Z,69.64
2022-08-20T12:40:38.376Z,69.81
2022-08-20T12:43:10.103Z,69.76
2022-08-20T12:45:42.028Z,69.72
2022-08-20T12:48:14.955Z,68.90
2022-08-20T12:50:47.415Z,68.55
2022-08-20T12:53:19.379Z,68.45
2022-08-20T12:55:50.989Z,68.87
2022-08-20T12:58:22.659Z,69.01
2022-08-20T13:01:07.625Z,68.92
2022-08-20T13:03:43.141Z,68.78
2022-08-20T13:06:19.716Z,68.48
2022-08-20T13:08:54.411Z,68.94
2022-08-20T13:11:25.985Z,69.21
2022-08-20T13:13:57.895Z,69.19
2022-08-20T13:16:29.571Z,69.51
2022-08-20T13:19:01.271Z,70.11
2022-08-20T13:21:33.002Z,70.24
2022-08-20T13:24:05.558Z,69.90
2022-08-20T13:26:37.424Z,69.90
2022-08-20T13:29:09.963Z,70.14
2022-08-20T13:31:41.567Z,70.30
2022-08-20T13:34:13.221Z,70.70
2022-08-20T13:36:44.789Z,70.96
2022-08-20T13:39:16.733Z,71.33
2022-08-20T13:41:49.642Z,71.68
2022-08-20T13:44:21.222Z,71.82
2022-08-20T13:47:15.926Z,72.18
2022-08-20T13:49:48.076Z,72.58
2022-08-20T13:52:22.996Z,72.79
2022-08-20T13:54:56.164Z,72.58
2022-08-20T13:57:30.458Z,72.91
2022-08-20T14:00:01.937Z,73.22
2022-08-20T14:02:35.976Z,73.33
2022-08-20T14:05:08.621Z,73.52
2022-08-20T14:07:40.409Z,73.74
2022-08-20T14:10:15.633Z,73.81
2022-08-20T14:12:48.249Z,73.60
2022-08-20T14:15:20.697Z,73.69
2022-08-20T14:17:57.312Z,73.72
2022-08-20T14:20:35.608Z,74.00
2022-08-20T14:23:10.479Z,74.43
2022-08-20T14:25:42.574Z,74.66
2022-08-20T14:28:18.273Z,74.64
2022-08-20T14:30:52.630Z,74.46
2022-08-20T14:33:26.309Z,74.42
2022-08-20T14:35:58.058Z,74.23
2022-08-20T14:38:29.617Z,74.28
2022-08-20T14:41:01.151Z,74.46
2022-08-20T14:43:32.761Z,74.29
2022-08-20T14:46:04.479Z,73.99
2022-08-20T14:48:36.242Z,74.07
2022-08-20T14:51:10.093Z,73.88
2022-08-20T14:53:41.690Z,74.07
2022-08-20T14:56:13.296Z,74.25
2022-08-20T14:58:44.840Z,74.18
2022-08-20T15:01:16.508Z,73.85
2022-08-20T15:03:47.999Z,73.95
2022-08-20T15:06:22.700Z,74.33
2022-08-20T15:08:54.350Z,74.26
2022-08-20T15:11:29.440Z,74.19
2022-08-20T15:14:04.062Z,74.29
2022-08-20T15:16:36.376Z,74.25
2022-08-20T15:19:08.348Z,74.27
2022-08-20T15:21:45.091Z,74.29
2022-08-20T15:24:19.747Z,74.34
2022-08-20T15:26:51.446Z,74.27
2022-08-20T15:29:23.637Z,74.46
2022-08-20T15:31:55.467Z,74.51
2022-08-20T15:34:27.129Z,74.68
2022-08-20T15:37:00.330Z,74.25
2022-08-20T15:39:31.984Z,74.09
2022-08-20T15:42:03.900Z,74.09
2022-08-20T15:44:35.991Z,74.24
2022-08-20T15:47:22.260Z,74.33
2022-08-20T15:50:01.141Z,74.60
2022-08-20T15:52:39.310Z,74.67
2022-08-20T15:55:16.734Z,74.52
2022-08-20T15:58:00.384Z,74.65
2022-08-20T16:00:45.444Z,74.46
2022-08-20T16:03:33.192Z,74.52
2022-08-20T16:06:13.645Z,75.01
2022-08-20T16:09:00.574Z,75.25
2022-08-20T16:11:48.315Z,74.74
2022-08-20T16:14:23.323Z,75.02
2022-08-20T16:17:01.541Z,75.52
2022-08-20T16:19:47.981Z,75.66
2022-08-20T16:22:20.939Z,75.51
2022-08-20T16:24:52.664Z,75.82
2022-08-20T16:27:29.490Z,76.02
2022-08-20T16:30:09.768Z,75.90
2022-08-20T16:32:45.361Z,76.11
2022-08-20T16:35:34.240Z,76.21
2022-08-20T16:38:21.187Z,76.27
2022-08-20T16:40:58.594Z,76.35
2022-08-20T16:43:35.856Z,76.07
2022-08-20T16:46:16.161Z,75.90
2022-08-20T16:48:54.888Z,76.37
2022-08-20T16:51:35.137Z,76.30
2022-08-20T16:54:11.215Z,76.47
2022-08-20T16:56:45.142Z,76.72
2022-08-20T16:59:27.011Z,76.39
2022-08-20T17:02:10.079Z,76.58
2022-08-20T17:04:58.645Z,76.73
2022-08-20T17:07:46.222Z,76.53
2022-08-20T17:10:22.402Z,76.63
2022-08-20T17:13:00.395Z,76.73
2022-08-20T17:15:35.094Z,76.80
2022-08-20T17:18:23.577Z,76.55
2022-08-20T17:21:00.381Z,76.47
2022-08-20T17:23:49.171Z,76.55
2022-08-20T17:26:30.867Z,76.61
2022-08-20T17:29:04.851Z,76.49
2022-08-20T17:31:38.844Z,76.20
2022-08-20T17:34:18.708Z,76.05
2022-08-20T17:36:57.061Z,75.92
2022-08-20T17:39:31.595Z,75.92
2022-08-20T17:42:09.910Z,76.08
2022-08-20T17:44:46.875Z,76.12
2022-08-20T17:47:24.025Z,75.96
2022-08-20T17:50:02.820Z,75.95
2022-08-20T17:52:46.517Z,76.10
2022-08-20T17:55:18.467Z,76.26
2022-08-20T17:57:58.868Z,76.32
2022-08-20T18:00:31.080Z,76.49
2022-08-20T18:03:09.952Z,76.73
2022-08-20T18:05:43.273Z,76.78
2022-08-20T18:08:31.231Z,76.93
2022-08-20T18:11:11.014Z,77.05
2022-08-20T18:13:59.206Z,77.05
2022-08-20T18:16:42.422Z,77.23
2022-08-20T18:19:23.710Z,77.31
2022-08-20T18:22:11.477Z,77.33
2022-08-20T18:24:53.135Z,77.40
2022-08-20T18:27:29.334Z,77.28
2022-08-20T18:30:02.447Z,77.38
2022-08-20T18:32:39.209Z,77.28
2022-08-20T18:35:18.715Z,77.37
2022-08-20T18:37:50.703Z,77.64
2022-08-20T18:40:30.326Z,77.33
2022-08-20T18:43:14.891Z,77.32
2022-08-20T18:45:46.864Z,77.67
2022-08-20T18:48:25.651Z,77.44
2022-08-20T18:50:59.459Z,77.44
2022-08-20T18:53:34.581Z,77.57
2022-08-20T18:56:08.929Z,77.70
2022-08-20T18:58:55.582Z,77.48
2022-08-20T19:01:28.890Z,77.53
2022-08-20T19:04:00.752Z,77.48
2022-08-20T19:06:42.270Z,77.34
2022-08-20T19:09:19.399Z,77.21
2022-08-20T19:12:02.283Z,77.27
2022-08-20T19:14:49.756Z,77.12
2022-08-20T19:17:29.993Z,77.10
2022-08-20T19:20:08.948Z,77.13
2022-08-20T19:22:42.305Z,77.21
2022-08-20T19:25:25.907Z,77.35
2022-08-20T19:27:59.677Z,77.43
2022-08-20T19:30:39.600Z,77.38
2022-08-20T19:33:14.065Z,77.55
2022-08-20T19:35:46.040Z,77.61
2022-08-20T19:38:19.190Z,77.56
2022-08-20T19:41:10.957Z,77.76
2022-08-20T19:43:47.017Z,77.88
2022-08-20T19:46:24.604Z,78.07
2022-08-20T19:49:18.011Z,77.93
2022-08-20T19:52:07.538Z,77.90
2022-08-20T19:54:49.540Z,78.22
2022-08-20T19:57:23.110Z,78.24
2022-08-20T19:59:58.172Z,78.06
2022-08-20T20:02:34.031Z,77.85
2022-08-20T20:05:10.555Z,78.04
2022-08-20T20:07:46.228Z,78.03
2022-08-20T20:10:32.491Z,78.05
2022-08-20T20:13:11.218Z,78.29
2022-08-20T20:15:45.415Z,77.97
2022-08-20T20:18:17.261Z,78.15
2022-08-20T20:20:57.813Z,78.07
2022-08-20T20:23:38.744Z,78.18
2022-08-20T20:26:20.961Z,78.34
2022-08-20T20:28:55.919Z,78.20
2022-08-20T20:31:33.810Z,78.19
2022-08-20T20:34:11.383Z,78.37
2022-08-20T20:36:46.282Z,78.44
2022-08-20T20:39:37.548Z,78.21
2022-08-20T20:42:14.559Z,78.43
2022-08-20T20:44:47.342Z,78.35
2022-08-20T20:47:25.303Z,78.27
2022-08-20T20:49:59.801Z,78.29
2022-08-20T20:52:33.867Z,77.96
2022-08-20T20:55:13.252Z,78.06
2022-08-20T20:57:45.075Z,78.47
2022-08-20T21:00:19.567Z,78.43
2022-08-20T21:02:54.276Z,78.81
2022-08-20T21:05:28.733Z,79.18
2022-08-20T21:08:02.609Z,79.43
2022-08-20T21:10:37.596Z,79.57
2022-08-20T21:13:10.947Z,79.64
2022-08-20T21:15:42.995Z,79.40
2022-08-20T21:18:14.840Z,79.67
2022-08-20T21:20:48.380Z,79.63
2022-08-20T21:23:21.523Z,79.63
2022-08-20T21:26:12.972Z,79.48
2022-08-20T21:28:44.914Z,79.40
2022-08-20T21:31:17.167Z,79.31
2022-08-20T21:33:49.025Z,79.50
2022-08-20T21:36:20.852Z,79.61
2022-08-20T21:38:53.048Z,79.50
2022-08-20T21:41:29.578Z,79.65
2022-08-20T21:44:15.070Z,79.69
2022-08-20T21:46:47.333Z,79.57
2022-08-20T21:49:20.476Z,79.38
2022-08-20T21:51:52.668Z,79.27
2022-08-20T21:54:25.396Z,79.09
2022-08-20T21:57:02.673Z,79.08
2022-08-20T21:59:36.906Z,79.17
2022-08-20T22:02:09.456Z,79.23
2022-08-20T22:04:41.238Z,79.40
2022-08-20T22:07:13.234Z,79.49
2022-08-20T22:09:45.171Z,79.56
2022-08-20T22:12:18.795Z,79.75
2022-08-20T22:14:50.901Z,79.88
2022-08-20T22:17:22.980Z,79.67
2022-08-20T22:19:55.111Z,79.96
2022-08-20T22:22:26.694Z,79.53
2022-08-20T22:24:59.329Z,79.56
2022-08-20T22:27:30.913Z,79.52
2022-08-20T22:30:03.062Z,79.64
2022-08-20T22:32:51.977Z,79.80
2022-08-20T22:35:24.312Z,79.92
2022-08-20T22:37:55.933Z,79.71
2022-08-20T22:40:30.195Z,79.70
2022-08-20T22:43:02.265Z,79.65
2022-08-20T22:45:35.290Z,79.88
2022-08-20T22:48:09.674Z,79.66
2022-08-20T22:50:41.198Z,79.85
2022-08-20T22:53:13.803Z,79.43
2022-08-20T22:55:45.637Z,79.61
2022-08-20T22:58:18.408Z,79.58
2022-08-20T23:00:53.822Z,79.53
2022-08-20T23:03:39.904Z,79.56
2022-08-20T23:06:13.637Z,79.20
2022-08-20T23:08:45.705Z,79.59
2022-08-20T23:11:20.108Z,79.68
2022-08-20T23:13:53.150Z,79.63
2022-08-20T23:16:25.011Z,79.89
2022-08-20T23:19:02.661Z,80.17
2022-08-20T23:21:34.233Z,80.03
2022-08-20T23:24:06.406Z,80.25
2022-08-20T23:26:52.531Z,80.06
2022-08-20T23:29:27.017Z,80.15
2022-08-20T23:31:59.263Z,80.34
2022-08-20T23:34:30.900Z,80.18
2022-08-20T23:37:03.857Z,80.20
2022-08-20T23:39:35.975Z,80.30
2022-08-20T23:42:08.716Z,80.24
2022-08-20T23:44:40.231Z,80.08
2022-08-20T23:47:15.981Z,80.13
2022-08-20T23:49:47.657Z,80.08
2022-08-20T23:52:19.267Z,80.11
2022-08-20T23:54:50.872Z,80.11
2022-08-20T23:57:22.555Z,80.12
2022-08-20T23:59:54.591Z,80.01
